Terminal Aerodrome Forecast
Issued by NWS

Home | Current Version | Previous Version | Text Only | Print | Product List | Glossary On
Versions: 1 2 3 4 5 6 7 8 9 10 11 12 13 14 15 16 17 18
000
FTUS42 KKEY 250538
TAFMTH
TAF
KMTH 250538Z 2506/2606 09010G16KT P6SM VCSH SCT023 SCT050
      TEMPO 2506/2507 12012G25KT 3SM SHRA BKN020 BKN050
     FM251200 10012G19KT P6SM FEW023=

USA.gov is the U.S. government's official web portal to all federal, state and local government web resources and services.